createdAt,value
2023-03-30T00:02:30.167Z,10.45
2023-03-30T00:08:32.707Z,10.31
2023-03-30T00:14:36.921Z,10.61
2023-03-30T00:20:42.212Z,10.86
2023-03-30T00:26:43.870Z,11.04
2023-03-30T00:32:46.307Z,10.66
2023-03-30T00:38:47.906Z,10.81
2023-03-30T00:45:06.140Z,14.12
2023-03-30T00:51:09.878Z,11.36
2023-03-30T00:57:12.283Z,11.24
2023-03-30T01:03:24.171Z,11.09
2023-03-30T01:09:25.746Z,11.43
2023-03-30T01:15:31.543Z,11.41
2023-03-30T01:22:12.223Z,11.31
2023-03-30T01:28:25.465Z,11.69
2023-03-30T01:34:51.061Z,11.61
2023-03-30T01:41:21.851Z,11.30
2023-03-30T01:47:31.217Z,11.12
2023-03-30T01:53:59.199Z,10.99
2023-03-30T02:00:12.601Z,10.82
2023-03-30T02:06:23.882Z,10.53
2023-03-30T02:12:29.493Z,10.26
2023-03-30T02:18:31.513Z,10.36
2023-03-30T02:24:33.081Z,10.42
2023-03-30T02:30:39.373Z,10.42
2023-03-30T02:37:11.062Z,10.46
2023-03-30T02:43:37.242Z,10.45
2023-03-30T02:49:46.094Z,11.03
2023-03-30T02:56:15.277Z,10.67
2023-03-30T03:02:48.924Z,10.60
2023-03-30T03:09:03.239Z,10.38
2023-03-30T03:15:07.059Z,10.12
2023-03-30T03:21:13.103Z,10.11
2023-03-30T03:27:15.671Z,10.35
2023-03-30T03:33:50.261Z,10.60
2023-03-30T03:39:56.852Z,11.15
2023-03-30T03:46:00.009Z,13.48
2023-03-30T03:52:01.830Z,11.43
2023-03-30T03:58:06.596Z,11.48
2023-03-30T04:04:08.257Z,11.85
2023-03-30T04:10:10.172Z,11.54
2023-03-30T04:16:18.316Z,11.18
2023-03-30T04:22:45.416Z,11.21
2023-03-30T04:29:07.442Z,11.19
2023-03-30T04:35:18.616Z,11.14
2023-03-30T04:41:47.955Z,11.02
2023-03-30T04:48:09.949Z,11.07
2023-03-30T04:54:14.257Z,11.34
2023-03-30T05:00:42.004Z,11.80
2023-03-30T05:07:15.479Z,12.39
2023-03-30T05:13:23.941Z,12.62
2023-03-30T05:19:52.815Z,12.71
2023-03-30T05:26:21.126Z,13.15
2023-03-30T05:32:49.833Z,13.53
2023-03-30T05:39:29.658Z,13.58
2023-03-30T05:45:47.232Z,13.28
2023-03-30T05:52:08.061Z,13.72
2023-03-30T05:58:28.505Z,14.17
2023-03-30T06:04:40.040Z,14.26
2023-03-30T06:10:41.993Z,14.43
2023-03-30T06:16:50.392Z,14.77
2023-03-30T06:22:52.381Z,14.81
2023-03-30T06:28:56.735Z,14.95
2023-03-30T06:34:58.437Z,15.48
2023-03-30T06:41:04.977Z,15.91
2023-03-30T06:47:07.649Z,16.26
2023-03-30T06:53:09.063Z,16.45
2023-03-30T06:59:16.408Z,16.95
2023-03-30T07:05:37.108Z,17.10
2023-03-30T07:11:53.869Z,17.44
2023-03-30T07:17:57.648Z,17.81
2023-03-30T07:24:02.734Z,18.09
2023-03-30T07:30:20.600Z,18.67
2023-03-30T07:36:25.196Z,18.66
2023-03-30T07:42:26.776Z,19.05
2023-03-30T07:48:28.625Z,19.40
2023-03-30T07:54:30.594Z,19.72
2023-03-30T08:00:53.233Z,19.65
2023-03-30T08:07:26.938Z,20.02
2023-03-30T08:13:33.710Z,19.54
2023-03-30T08:19:35.328Z,19.87
2023-03-30T08:25:37.224Z,20.57
2023-03-30T08:31:38.740Z,19.87
2023-03-30T08:37:40.459Z,19.73
2023-03-30T08:43:50.274Z,20.08
2023-03-30T08:50:01.187Z,20.51
2023-03-30T08:56:32.100Z,21.06
2023-03-30T09:02:38.189Z,21.48
2023-03-30T09:08:39.993Z,22.06
2023-03-30T09:14:45.291Z,22.17
2023-03-30T09:20:47.699Z,22.04
2023-03-30T09:27:24.712Z,22.09
2023-03-30T09:33:44.602Z,22.53
2023-03-30T09:39:47.310Z,23.10
2023-03-30T09:45:48.810Z,23.07
2023-03-30T09:52:03.493Z,22.88
2023-03-30T09:58:26.099Z,22.57
2023-03-30T10:04:27.628Z,24.18
2023-03-30T10:10:36.829Z,24.67
2023-03-30T10:16:38.377Z,24.52
2023-03-30T10:22:53.649Z,24.49
2023-03-30T10:29:06.924Z,23.89
2023-03-30T10:35:09.452Z,24.09
2023-03-30T10:41:15.087Z,23.96
2023-03-30T10:47:48.925Z,23.76
2023-03-30T10:54:02.534Z,23.71
2023-03-30T11:00:12.344Z,23.07
2023-03-30T11:06:22.204Z,23.93
2023-03-30T11:12:36.296Z,23.84
2023-03-30T11:18:52.743Z,23.70
2023-03-30T11:24:57.657Z,23.92
2023-03-30T11:31:04.387Z,24.72
2023-03-30T11:37:13.838Z,25.28
2023-03-30T11:43:17.083Z,25.48
2023-03-30T11:49:37.953Z,24.99
2023-03-30T11:55:39.314Z,25.04
2023-03-30T12:01:56.073Z,25.32
2023-03-30T12:08:00.589Z,24.96
2023-03-30T12:14:02.184Z,25.01
2023-03-30T12:20:10.141Z,25.26
2023-03-30T12:26:26.422Z,25.04
2023-03-30T12:32:29.377Z,25.03
2023-03-30T12:38:41.048Z,24.93
2023-03-30T12:45:02.160Z,24.88
2023-03-30T12:51:03.827Z,24.87
2023-03-30T12:57:17.707Z,24.64
2023-03-30T13:03:25.275Z,25.07
2023-03-30T13:09:27.264Z,25.31
2023-03-30T13:15:28.869Z,24.66
2023-03-30T13:21:47.207Z,24.67
2023-03-30T13:27:50.336Z,24.61
2023-03-30T13:34:06.793Z,24.53
2023-03-30T13:40:35.172Z,24.77
2023-03-30T13:46:52.474Z,24.27
2023-03-30T13:52:55.524Z,23.99
2023-03-30T13:59:02.775Z,24.34
2023-03-30T14:05:16.188Z,23.49
2023-03-30T14:11:21.125Z,22.98
2023-03-30T14:17:23.867Z,22.99
2023-03-30T14:23:31.121Z,23.34
2023-03-30T14:29:32.817Z,23.20
2023-03-30T14:35:39.363Z,23.45
2023-03-30T14:41:40.829Z,23.16
2023-03-30T14:47:42.587Z,23.59
2023-03-30T14:53:45.634Z,23.26
2023-03-30T14:59:50.850Z,23.35
2023-03-30T15:05:53.479Z,22.77
2023-03-30T15:11:58.524Z,23.00
2023-03-30T15:18:02.331Z,22.94
2023-03-30T15:24:08.190Z,23.25
2023-03-30T15:30:26.161Z,23.42
2023-03-30T15:45:01.060Z,22.96
2023-03-30T15:51:07.491Z,22.09
2023-03-30T15:57:08.983Z,21.59
2023-03-30T16:03:12.476Z,21.66
2023-03-30T16:09:15.505Z,21.69
2023-03-30T16:15:19.609Z,21.01
2023-03-30T16:21:23.801Z,21.44
2023-03-30T16:27:25.199Z,21.48
2023-03-30T16:33:26.635Z,21.33
2023-03-30T16:39:29.838Z,21.05
2023-03-30T16:45:33.594Z,21.03
2023-03-30T16:51:35.199Z,21.35
2023-03-30T16:57:36.940Z,22.25
2023-03-30T17:03:39.271Z,20.99
2023-03-30T17:09:40.932Z,21.37
2023-03-30T17:15:42.737Z,20.44
2023-03-30T17:21:45.134Z,20.34
2023-03-30T17:27:47.967Z,20.26
2023-03-30T17:33:51.233Z,20.48
2023-03-30T17:39:53.174Z,20.46
2023-03-30T17:45:55.092Z,20.30
2023-03-30T17:51:56.882Z,20.18
2023-03-30T17:57:59.497Z,20.06
2023-03-30T18:04:01.118Z,20.25
2023-03-30T18:10:19.713Z,20.23
2023-03-30T18:16:23.661Z,20.17
2023-03-30T18:22:25.417Z,20.19
2023-03-30T18:28:28.025Z,20.16
2023-03-30T18:34:30.203Z,20.14
2023-03-30T18:40:37.631Z,20.23
2023-03-30T18:46:39.926Z,20.55
2023-03-30T18:52:42.270Z,20.61
2023-03-30T18:58:44.164Z,20.27
2023-03-30T19:04:48.377Z,20.00
2023-03-30T19:10:55.407Z,20.04
2023-03-30T19:17:01.879Z,20.08
2023-03-30T19:23:06.114Z,19.89
2023-03-30T19:29:07.999Z,19.78
2023-03-30T19:35:11.178Z,19.86
2023-03-30T19:41:13.620Z,19.76
2023-03-30T19:47:17.718Z,19.72
2023-03-30T19:53:19.301Z,20.13
2023-03-30T19:59:24.033Z,19.81
2023-03-30T20:05:26.047Z,22.05
2023-03-30T20:11:28.124Z,20.55
2023-03-30T20:17:33.418Z,21.47
2023-03-30T20:23:35.513Z,19.95
2023-03-30T20:29:39.085Z,19.83
2023-03-30T20:35:43.263Z,20.11
2023-03-30T20:41:44.894Z,19.98
2023-03-30T20:47:49.275Z,19.96
2023-03-30T20:53:51.018Z,20.07
2023-03-30T20:59:55.712Z,19.74
2023-03-30T21:05:59.842Z,19.53
2023-03-30T21:12:02.920Z,19.46
2023-03-30T21:18:04.909Z,19.27
2023-03-30T21:24:11.218Z,19.18
2023-03-30T21:30:13.741Z,19.32
2023-03-30T21:36:18.737Z,19.39
2023-03-30T21:42:25.696Z,20.17
2023-03-30T21:48:34.694Z,21.43
2023-03-30T21:54:37.195Z,19.32
2023-03-30T22:00:39.879Z,19.26
2023-03-30T22:06:41.338Z,19.03
2023-03-30T22:12:42.885Z,18.75
2023-03-30T22:18:45.138Z,18.57
2023-03-30T22:24:46.654Z,18.70
2023-03-30T22:30:48.288Z,18.40
2023-03-30T22:36:52.242Z,18.24
2023-03-30T22:42:54.048Z,18.30
2023-03-30T22:48:56.019Z,18.26
2023-03-30T22:54:57.784Z,18.12
2023-03-30T23:01:08.498Z,18.01
2023-03-30T23:07:11.122Z,18.69
2023-03-30T23:13:13.319Z,18.55
2023-03-30T23:19:15.395Z,18.11
2023-03-30T23:25:20.345Z,18.16
2023-03-30T23:31:22.296Z,18.03
2023-03-30T23:37:24.827Z,18.25
2023-03-30T23:43:26.366Z,18.39
2023-03-30T23:49:28.829Z,17.84
2023-03-30T23:55:35.280Z,18.31
